Aktivitet

23/04/2019 - 18:00 - 20:00


Til Klubaftenen d. 23. April kl. 18:00 have vi inviteret flyvelederne fra Billund Tårn.

Vi havde håbet på godt vejr, men på køre turen til klubben var der sandstorm og med en følgende udsigt var en flyvetur nok tvivlsomt ligesom grill på terrassen med kort frist blev konverteret til et Ostebord:

TAF EKBI 230514Z 2306/2406 10012KT CAVOK
BECMG 2306/2309 11018G35KT
TEMPO 2309/2316 10023G42KT
BECMG 2318/2321 09014KT

Klubben var vært med Ostebord samt drikkevarer som TOM frisk arrangerede. Først fortalte vores formand Jens Pisarski om klubben med historie, udvikling og aktiviteter op gennem årene, hvorefter Morten Stolze fortalte om det at være GA pilot i en stor lufthavn.

Forskellige operationelle scenarier blev dørftet, bl. a. nødvendigheden af, at når man sender en strip skal man definere et VFR exit point til Briefing, f. eks Højen, Sdr. Omme, Give etc.  Der blev diskuteret fordele og ulemper, ligesom medlemmerne fik svar på forskellige spørgsmål som relaterede sig til flyveledelsen i og omkring Billund – alt sammen en rigtig god dialog hvor begge parter gav udtryk for, at stort set er der et glimrende samarbejde, som gør at vi kan komme ud at flyve.

Vinden lagde sig og 2 klubfly kom ud af hangaren hvor dels klubmedlemmer samt gæsterne fra tårnet fik sig en flyve tur i solnedgangen. At det stadig blæste kunne vi se på groundspeed i Commanderen, her havde vi på finale til bane 09, 37 kts mod 85kts på klokken.

Mvh,
Ejvind